createdAt,value
2022-12-02T00:00:48.766Z,96117.97
2022-12-02T00:03:20.655Z,96117.97
2022-12-02T00:05:50.282Z,96129.75
2022-12-02T00:08:22.543Z,96155.63
2022-12-02T00:10:52.573Z,96145.16
2022-12-02T00:13:23.937Z,96169.06
2022-12-02T00:15:56.661Z,96171.66
2022-12-02T00:18:24.768Z,96180.03
2022-12-02T00:20:52.848Z,96184.44
2022-12-02T00:23:22.621Z,96163.16
2022-12-02T00:25:52.874Z,96184.75
2022-12-02T00:28:21.033Z,96177.06
2022-12-02T00:30:48.871Z,96137.41
2022-12-02T00:33:18.287Z,96164.13
2022-12-02T00:35:46.364Z,96150.38
2022-12-02T00:38:14.372Z,96132.53
2022-12-02T00:40:44.612Z,96153.00
2022-12-02T00:43:30.166Z,96164.94
2022-12-02T00:46:15.669Z,96164.94
2022-12-02T00:48:43.616Z,96170.84
2022-12-02T00:51:11.992Z,96156.28
2022-12-02T00:53:39.826Z,96155.94
2022-12-02T00:56:09.045Z,96161.53
2022-12-02T00:58:37.017Z,96179.53
2022-12-02T01:01:05.357Z,96160.53
2022-12-02T01:03:33.231Z,96192.28
2022-12-02T01:06:01.344Z,96205.72
2022-12-02T01:08:29.236Z,96216.88
2022-12-02T01:10:58.352Z,96195.72
2022-12-02T01:13:28.933Z,96200.47
2022-12-02T01:15:57.010Z,96218.53
2022-12-02T01:18:25.017Z,96217.53
2022-12-02T01:20:52.891Z,96234.53
2022-12-02T01:23:20.751Z,96249.81
2022-12-02T01:25:49.468Z,96227.03
2022-12-02T01:28:17.777Z,96272.75
2022-12-02T01:30:47.840Z,96285.53
2022-12-02T01:33:16.055Z,96271.25
2022-12-02T01:35:43.848Z,96257.50
2022-12-02T01:38:11.654Z,96269.63
2022-12-02T01:40:39.774Z,96271.44
2022-12-02T01:43:08.308Z,96238.84
2022-12-02T01:45:36.505Z,96241.47
2022-12-02T01:48:06.362Z,96249.31
2022-12-02T01:50:34.237Z,96241.47
2022-12-02T01:53:02.309Z,96232.28
2022-12-02T01:55:30.753Z,96227.03
2022-12-02T01:57:59.572Z,96224.44
2022-12-02T02:00:28.059Z,96248.50
2022-12-02T02:02:56.502Z,96234.75
2022-12-02T02:05:28.990Z,96232.28
2022-12-02T02:07:59.610Z,96236.38
2022-12-02T02:10:30.587Z,96239.16
2022-12-02T02:12:59.438Z,96229.66
2022-12-02T02:15:27.352Z,96226.22
2022-12-02T02:18:00.656Z,96263.56
2022-12-02T02:20:33.098Z,96246.69
2022-12-02T02:23:16.153Z,96232.13
2022-12-02T02:25:47.740Z,96241.94
2022-12-02T02:28:16.181Z,96252.59
2022-12-02T02:30:44.758Z,96239.97
2022-12-02T02:33:15.400Z,96241.63
2022-12-02T02:35:44.592Z,96223.75
2022-12-02T02:38:17.492Z,96231.31
2022-12-02T02:40:46.304Z,96238.19
2022-12-02T02:43:15.652Z,96215.25
2022-12-02T02:45:44.667Z,96233.91
2022-12-02T02:48:14.387Z,96194.91
2022-12-02T02:50:45.484Z,96207.69
2022-12-02T02:53:15.411Z,96233.91
2022-12-02T02:55:44.820Z,96223.59
2022-12-02T02:58:20.165Z,96223.75
2022-12-02T03:00:52.336Z,96257.84
2022-12-02T03:03:23.053Z,96257.84
2022-12-02T03:05:53.398Z,96252.59
2022-12-02T03:08:22.018Z,96258.50
2022-12-02T03:10:52.377Z,96256.19
2022-12-02T03:13:20.484Z,96248.50
2022-12-02T03:15:48.926Z,96244.91
2022-12-02T03:18:17.078Z,96235.56
2022-12-02T03:20:45.152Z,96230.66
2022-12-02T03:23:13.115Z,96235.72
2022-12-02T03:25:41.092Z,96243.41
2022-12-02T03:28:11.995Z,96202.09
2022-12-02T03:30:41.048Z,96229.66
2022-12-02T03:33:09.589Z,96193.94
2022-12-02T03:35:37.682Z,96194.91
2022-12-02T03:38:05.746Z,96187.38
2022-12-02T03:40:34.059Z,96210.31
2022-12-02T03:43:02.161Z,96217.72
2022-12-02T03:45:31.456Z,96232.28
2022-12-02T03:47:59.309Z,96216.88
2022-12-02T03:50:27.409Z,96220.31
2022-12-02T03:52:55.944Z,96229.81
2022-12-02T03:55:24.398Z,96208.34
2022-12-02T03:57:52.484Z,96223.75
2022-12-02T04:00:20.935Z,96213.59
2022-12-02T04:02:50.418Z,96203.44
2022-12-02T04:05:18.412Z,96185.59
2022-12-02T04:07:46.328Z,96204.25
2022-12-02T04:10:14.309Z,96210.31
2022-12-02T04:12:42.145Z,96229.81
2022-12-02T04:15:11.607Z,96215.25
2022-12-02T04:17:39.388Z,96211.13
2022-12-02T04:20:10.084Z,96208.50
2022-12-02T04:22:38.101Z,96216.88
2022-12-02T04:25:06.701Z,96243.56
2022-12-02T04:27:34.481Z,96227.38
2022-12-02T04:30:02.226Z,96207.84
2022-12-02T04:32:30.053Z,96224.06
2022-12-02T04:34:57.960Z,96229.00
2022-12-02T04:37:27.149Z,96194.09
2022-12-02T04:39:55.075Z,96222.13
2022-12-02T04:42:22.980Z,96196.72
2022-12-02T04:44:51.207Z,96229.00
2022-12-02T04:47:19.247Z,96218.00
2022-12-02T04:49:47.088Z,96217.19
2022-12-02T04:52:15.389Z,96232.59
2022-12-02T04:54:44.592Z,96213.75
2022-12-02T04:57:12.450Z,96214.56
2022-12-02T04:59:40.246Z,96180.50
2022-12-02T05:02:07.981Z,96210.31
2022-12-02T05:04:40.085Z,96197.69
2022-12-02T05:07:08.450Z,96213.91
2022-12-02T05:09:36.343Z,96203.59
2022-12-02T05:12:05.827Z,96208.50
2022-12-02T05:14:33.650Z,96204.41
2022-12-02T05:17:03.730Z,96247.69
2022-12-02T05:19:31.664Z,96242.75
2022-12-02T05:21:59.624Z,96216.19
2022-12-02T05:24:41.408Z,96223.09
2022-12-02T05:27:10.565Z,96235.88
2022-12-02T05:29:38.377Z,96204.41
2022-12-02T05:32:06.774Z,96211.28
2022-12-02T05:34:34.603Z,96235.06
2022-12-02T05:37:03.198Z,96232.28
2022-12-02T05:39:31.083Z,96241.78
2022-12-02T05:42:05.660Z,96230.66
2022-12-02T05:44:39.567Z,96233.91
2022-12-02T05:47:13.008Z,96244.41
2022-12-02T05:49:42.448Z,96218.81
2022-12-02T05:52:20.103Z,96251.28
2022-12-02T05:54:48.192Z,96280.09
2022-12-02T05:57:16.602Z,96306.47
2022-12-02T05:59:45.797Z,96294.38
2022-12-02T06:02:25.869Z,96296.31
2022-12-02T06:04:56.305Z,96289.59
2022-12-02T06:07:24.919Z,96256.31
2022-12-02T06:09:54.688Z,96256.34
2022-12-02T06:12:22.819Z,96289.59
2022-12-02T06:14:56.112Z,96262.41
2022-12-02T06:17:24.012Z,96253.91
2022-12-02T06:19:54.563Z,96256.19
2022-12-02T06:22:26.048Z,96254.56
2022-12-02T06:24:56.213Z,96254.22
2022-12-02T06:27:24.418Z,96263.72
2022-12-02T06:29:59.823Z,96256.19
2022-12-02T06:32:37.705Z,96266.00
2022-12-02T06:35:17.501Z,96292.88
2022-12-02T06:37:45.629Z,96272.41
2022-12-02T06:40:29.111Z,96289.75
2022-12-02T06:42:58.836Z,96300.09
2022-12-02T06:45:31.270Z,96306.66
2022-12-02T06:48:07.102Z,96293.53
2022-12-02T06:50:42.404Z,96316.66
2022-12-02T06:53:34.917Z,96297.97
2022-12-02T06:56:08.148Z,96290.59
2022-12-02T06:58:42.369Z,96296.31
2022-12-02T07:01:21.521Z,96286.16
2022-12-02T07:03:57.325Z,96283.69
2022-12-02T07:06:26.909Z,96284.19
2022-12-02T07:08:57.234Z,96285.19
2022-12-02T07:11:42.157Z,96287.00
2022-12-02T07:14:21.157Z,96299.09
2022-12-02T07:16:51.409Z,96304.03
2022-12-02T07:19:23.604Z,96309.91
2022-12-02T07:21:53.793Z,96298.59
2022-12-02T07:24:23.833Z,96278.78
2022-12-02T07:26:52.948Z,96331.22
2022-12-02T07:29:29.761Z,96354.03
2022-12-02T07:31:58.992Z,96338.94
2022-12-02T07:34:32.556Z,96316.66
2022-12-02T07:37:02.006Z,96344.97
2022-12-02T07:39:29.864Z,96349.94
2022-12-02T07:41:58.076Z,96337.00
2022-12-02T07:44:25.924Z,96343.06
2022-12-02T07:46:53.798Z,96337.13
2022-12-02T07:49:23.186Z,96341.41
2022-12-02T07:51:51.203Z,96334.50
2022-12-02T07:54:19.051Z,96343.06
2022-12-02T07:56:46.844Z,96372.88
2022-12-02T07:59:17.642Z,96336.31
2022-12-02T08:01:46.386Z,96332.88
2022-12-02T08:04:14.286Z,96324.34
2022-12-02T08:06:43.522Z,96340.44
2022-12-02T08:09:11.378Z,96325.97
2022-12-02T08:11:39.533Z,96322.69
2022-12-02T08:14:07.497Z,96307.31
2022-12-02T08:16:35.668Z,96302.69
2022-12-02T08:19:03.982Z,96317.47
2022-12-02T08:21:32.722Z,96334.66
2022-12-02T08:24:03.608Z,96338.09
2022-12-02T08:26:31.420Z,96314.19
2022-12-02T08:28:59.381Z,96297.13
2022-12-02T08:31:27.682Z,96290.44
2022-12-02T08:33:55.705Z,96272.41
2022-12-02T08:36:23.692Z,96272.72
2022-12-02T08:38:51.508Z,96266.50
2022-12-02T08:41:20.974Z,96292.72
2022-12-02T08:43:49.126Z,96297.13
2022-12-02T08:46:17.373Z,96300.75
2022-12-02T08:48:45.238Z,96300.44
2022-12-02T08:51:13.342Z,96302.38
2022-12-02T08:53:41.230Z,96295.50
2022-12-02T08:56:09.041Z,96296.31
2022-12-02T08:58:38.331Z,96323.53
2022-12-02T09:01:07.431Z,96323.53
2022-12-02T09:03:35.459Z,96304.03
2022-12-02T09:06:03.271Z,96297.13
2022-12-02T09:08:31.751Z,96343.34
2022-12-02T09:10:59.781Z,96315.81
2022-12-02T09:13:27.879Z,96309.25
2022-12-02T09:15:57.074Z,96350.75
2022-12-02T09:18:25.472Z,96365.34
2022-12-02T09:20:53.372Z,96407.97
2022-12-02T09:23:21.124Z,96415.50
2022-12-02T09:25:49.013Z,96433.53
2022-12-02T09:28:16.862Z,96473.41
2022-12-02T09:30:45.042Z,96522.78
2022-12-02T09:33:14.277Z,96588.28
2022-12-02T09:35:42.530Z,96629.47
2022-12-02T09:38:10.509Z,96667.59
2022-12-02T09:40:39.166Z,96683.72
2022-12-02T09:43:07.297Z,96702.75
2022-12-02T09:45:35.481Z,96767.47
2022-12-02T09:48:03.666Z,96726.41
2022-12-02T09:50:32.892Z,96713.59
2022-12-02T09:53:06.898Z,96734.13
2022-12-02T09:55:35.546Z,96698.31
2022-12-02T09:58:12.655Z,96664.97
2022-12-02T10:00:40.447Z,96647.88
2022-12-02T10:03:12.624Z,96619.97
2022-12-02T10:05:45.434Z,96600.28
2022-12-02T10:08:18.406Z,96608.81
2022-12-02T10:10:47.235Z,96583.22
2022-12-02T10:13:16.229Z,96581.56
2022-12-02T10:15:44.154Z,96564.50
2022-12-02T10:18:16.473Z,96517.69
2022-12-02T10:20:46.231Z,96499.00
2022-12-02T10:23:17.610Z,96463.25
2022-12-02T10:25:47.788Z,96489.66
2022-12-02T10:28:26.683Z,96459.94
2022-12-02T10:30:57.181Z,96447.31
2022-12-02T10:33:27.607Z,96453.88
2022-12-02T10:35:57.583Z,96435.84
2022-12-02T10:38:40.982Z,96443.69
2022-12-02T10:41:24.818Z,96407.97
2022-12-02T10:44:05.846Z,96394.50
2022-12-02T10:46:34.415Z,96392.72
2022-12-02T10:49:30.986Z,96399.59
2022-12-02T10:52:04.596Z,96376.66
2022-12-02T10:54:42.708Z,96381.56
2022-12-02T10:57:14.349Z,96368.94
2022-12-02T10:59:42.299Z,96380.09
2022-12-02T11:02:20.961Z,96362.06
2022-12-02T11:04:49.092Z,96336.47
2022-12-02T11:07:21.670Z,96332.38
2022-12-02T11:09:54.079Z,96325.31
2022-12-02T11:12:38.048Z,96290.25
2022-12-02T11:15:42.648Z,96299.09
2022-12-02T11:18:13.439Z,96327.28
2022-12-02T11:20:44.703Z,96324.50
2022-12-02T11:23:24.151Z,96305.97
2022-12-02T11:26:03.580Z,96282.38
2022-12-02T11:28:49.378Z,96297.47
2022-12-02T11:31:21.957Z,96293.03
2022-12-02T11:34:07.242Z,96308.44
2022-12-02T11:36:36.642Z,96319.41
2022-12-02T11:39:09.778Z,96338.09
2022-12-02T11:42:14.112Z,96366.31
2022-12-02T11:44:42.026Z,96343.34
2022-12-02T11:47:26.186Z,96322.03
2022-12-02T11:49:54.754Z,96347.59
2022-12-02T11:52:26.227Z,96344.31
2022-12-02T11:58:05.481Z,96298.28
2022-12-02T12:00:38.329Z,96320.25
2022-12-02T12:03:15.495Z,96276.00
2022-12-02T12:05:45.376Z,96265.03
2022-12-02T12:08:26.202Z,96243.69
2022-12-02T12:11:26.942Z,96264.22
2022-12-02T12:14:03.838Z,96265.03
2022-12-02T12:16:33.527Z,96263.41
2022-12-02T12:19:04.667Z,96278.78
2022-12-02T12:21:46.000Z,96293.88
2022-12-02T12:24:31.299Z,96273.56
2022-12-02T12:27:14.576Z,96251.59
2022-12-02T12:29:42.600Z,96261.75
2022-12-02T12:32:11.857Z,96254.06
2022-12-02T12:34:39.989Z,96248.97
2022-12-02T12:37:07.779Z,96242.09
2022-12-02T12:39:35.613Z,96253.25
2022-12-02T12:42:04.960Z,96224.22
2022-12-02T12:44:33.227Z,96213.91
2022-12-02T12:47:02.792Z,96248.31
2022-12-02T12:49:30.752Z,96220.13
2022-12-02T12:51:58.646Z,96193.75
2022-12-02T12:54:26.607Z,96207.34
2022-12-02T12:56:54.552Z,96207.03
2022-12-02T12:59:23.761Z,96210.63
2022-12-02T13:01:52.035Z,96170.03
2022-12-02T13:04:20.286Z,96161.19
2022-12-02T13:06:48.206Z,96169.03
2022-12-02T13:09:16.841Z,96171.66
2022-12-02T13:11:45.618Z,96173.28
2022-12-02T13:14:13.411Z,96151.19
2022-12-02T13:16:43.671Z,96111.38
2022-12-02T13:19:11.704Z,96165.09
2022-12-02T13:21:39.536Z,96128.78
2022-12-02T13:24:07.857Z,96110.41
2022-12-02T13:26:35.954Z,96105.19
2022-12-02T13:29:03.740Z,96120.28
2022-12-02T13:31:31.573Z,96131.22
2022-12-02T13:34:00.914Z,96127.13
2022-12-02T13:36:29.026Z,96100.75
2022-12-02T13:39:01.092Z,96099.44
2022-12-02T13:41:32.365Z,96098.97
2022-12-02T13:44:00.428Z,96090.78
2022-12-02T13:46:28.218Z,96082.91
2022-12-02T13:48:56.351Z,96088.31
2022-12-02T13:51:26.778Z,96073.75
2022-12-02T13:53:59.114Z,96067.88
2022-12-02T13:56:27.955Z,96067.88
2022-12-02T13:58:55.796Z,96074.25
2022-12-02T14:01:23.757Z,96059.38
2022-12-02T14:03:51.823Z,96028.78
2022-12-02T14:06:19.680Z,96072.13
2022-12-02T14:08:48.927Z,96021.75
2022-12-02T14:11:20.177Z,96037.13
2022-12-02T14:13:49.408Z,96035.81
2022-12-02T14:16:17.467Z,96057.72
2022-12-02T14:18:45.382Z,96040.72
2022-12-02T14:21:13.252Z,96030.56
2022-12-02T14:23:41.194Z,96035.47
2022-12-02T14:26:10.360Z,96036.47
2022-12-02T14:28:38.319Z,96022.06
2022-12-02T14:31:12.793Z,96025.34
2022-12-02T14:34:10.203Z,96016.84
2022-12-02T14:36:34.706Z,96022.72
2022-12-02T14:39:02.542Z,96056.09
2022-12-02T14:41:31.734Z,96026.16
2022-12-02T14:43:59.516Z,96029.75
2022-12-02T14:46:30.281Z,96038.09
2022-12-02T14:49:23.347Z,96046.59
2022-12-02T14:51:45.973Z,96003.38
2022-12-02T14:54:13.931Z,95959.91
2022-12-02T14:56:43.149Z,95972.66
2022-12-02T14:59:14.728Z,95986.38
2022-12-02T15:01:43.129Z,95976.91
2022-12-02T15:04:10.942Z,95980.50
2022-12-02T15:06:38.761Z,95974.44
2022-12-02T15:09:06.609Z,95961.69
2022-12-02T15:11:34.440Z,95952.38
2022-12-02T15:14:03.575Z,95937.00
2022-12-02T15:16:31.544Z,95945.50
2022-12-02T15:18:59.448Z,95969.38
2022-12-02T15:21:27.297Z,95955.16
2022-12-02T15:23:55.134Z,95945.50
2022-12-02T15:26:23.096Z,95933.75
2022-12-02T15:28:50.940Z,95938.63
2022-12-02T15:31:21.002Z,95927.69
2022-12-02T15:33:49.311Z,95922.78
2022-12-02T15:36:17.424Z,95901.53
2022-12-02T15:38:45.401Z,95892.88
2022-12-02T15:41:13.580Z,95912.50
2022-12-02T15:43:41.429Z,95909.88
2022-12-02T15:46:09.271Z,95875.84
2022-12-02T15:48:38.482Z,95888.75
2022-12-02T15:51:06.363Z,95890.38
2022-12-02T15:53:34.523Z,95903.97
2022-12-02T15:56:02.356Z,95924.41
2022-12-02T15:58:30.190Z,95908.25
2022-12-02T16:00:58.318Z,95901.53
2022-12-02T16:03:26.323Z,95898.09
2022-12-02T16:05:56.043Z,95920.16
2022-12-02T16:08:24.207Z,95877.97
2022-12-02T16:10:52.480Z,95870.94
2022-12-02T16:13:20.280Z,95853.13
2022-12-02T16:15:48.292Z,95860.31
2022-12-02T16:18:16.113Z,95891.22
2022-12-02T16:20:43.966Z,95901.38
2022-12-02T16:23:13.363Z,95905.94
2022-12-02T16:25:41.122Z,95899.72
2022-12-02T16:28:09.001Z,95890.38
2022-12-02T16:30:36.837Z,95900.56
2022-12-02T16:33:04.861Z,95894.81
2022-12-02T16:35:32.760Z,95918.38
2022-12-02T16:38:04.516Z,95896.13
2022-12-02T16:40:34.273Z,95892.88
2022-12-02T16:43:02.847Z,95881.06
2022-12-02T16:45:30.668Z,95870.78
2022-12-02T16:47:58.479Z,95881.59
2022-12-02T16:50:26.316Z,95894.50
2022-12-02T16:52:54.135Z,95882.72
2022-12-02T16:55:21.946Z,95892.06
2022-12-02T16:57:51.168Z,95877.47
2022-12-02T17:00:19.709Z,95881.06
2022-12-02T17:02:47.638Z,95868.16
2022-12-02T17:05:15.738Z,95869.31
2022-12-02T17:07:43.628Z,95857.22
2022-12-02T17:10:12.486Z,95851.34
2022-12-02T17:12:40.338Z,95864.06
2022-12-02T17:15:11.180Z,95850.69
2022-12-02T17:17:46.971Z,95823.22
2022-12-02T17:20:15.235Z,95841.84
2022-12-02T17:22:43.731Z,95839.41
2022-12-02T17:25:12.968Z,95864.91
2022-12-02T17:27:41.554Z,95849.69
2022-12-02T17:30:12.263Z,95864.06
2022-12-02T17:32:41.079Z,95855.59
2022-12-02T17:35:10.201Z,95847.09
2022-12-02T17:37:38.165Z,95853.13
2022-12-02T17:40:06.915Z,95872.56
2022-12-02T17:42:34.849Z,95883.84
2022-12-02T17:45:02.748Z,95881.06
2022-12-02T17:47:32.068Z,95851.50
2022-12-02T17:49:59.850Z,95858.19
2022-12-02T17:52:27.694Z,95847.09
2022-12-02T17:54:55.969Z,95863.09
2022-12-02T17:57:24.427Z,95876.16
2022-12-02T17:59:52.341Z,95858.03
2022-12-02T18:02:20.243Z,95854.75
2022-12-02T18:04:50.261Z,95848.72
2022-12-02T18:07:18.290Z,95836.97
2022-12-02T18:09:46.176Z,95831.41
2022-12-02T18:12:14.190Z,95837.59
2022-12-02T18:14:41.972Z,95852.97
2022-12-02T18:17:09.895Z,95843.81
2022-12-02T18:19:37.742Z,95828.47
2022-12-02T18:22:07.241Z,95819.97
2022-12-02T18:24:35.020Z,95826.81
2022-12-02T18:27:02.801Z,95852.31
2022-12-02T18:29:30.628Z,95833.69
2022-12-02T18:31:58.439Z,95826.81
2022-12-02T18:34:26.358Z,95825.19
2022-12-02T18:36:54.261Z,95828.47
2022-12-02T18:39:23.637Z,95826.66
2022-12-02T18:41:51.519Z,95832.72
2022-12-02T18:44:19.608Z,95819.16
2022-12-02T18:46:47.550Z,95813.09
2022-12-02T18:49:15.600Z,95827.63
2022-12-02T18:51:43.507Z,95805.59
2022-12-02T18:54:11.406Z,95802.97
2022-12-02T18:56:40.641Z,95794.47
2022-12-02T18:59:08.436Z,95809.84
2022-12-02T19:01:36.326Z,95783.38
2022-12-02T19:04:04.593Z,95798.06
2022-12-02T19:06:32.486Z,95791.88
2022-12-02T19:09:00.296Z,95796.94
2022-12-02T19:11:28.207Z,95794.47
2022-12-02T19:13:57.386Z,95785.34
2022-12-02T19:16:25.635Z,95775.84
2022-12-02T19:18:53.579Z,95771.75
2022-12-02T19:21:24.831Z,95755.59
2022-12-02T19:23:53.303Z,95768.97
2022-12-02T19:26:22.339Z,95786.97
2022-12-02T19:28:52.999Z,95768.16
2022-12-02T19:31:22.547Z,95736.63
2022-12-02T19:33:50.414Z,95746.09
2022-12-02T19:36:20.324Z,95742.19
2022-12-02T19:38:48.715Z,95752.00
2022-12-02T19:41:16.514Z,95766.53
2022-12-02T19:43:44.341Z,95778.16
2022-12-02T19:46:12.255Z,95755.59
2022-12-02T19:48:41.763Z,95733.38
2022-12-02T19:51:09.561Z,95733.38
2022-12-02T19:53:37.827Z,95741.88
2022-12-02T19:56:07.241Z,95757.88
2022-12-02T19:58:35.305Z,95768.97
2022-12-02T20:01:03.281Z,95761.28
2022-12-02T20:03:31.317Z,95763.25
2022-12-02T20:06:02.684Z,95758.84
2022-12-02T20:08:31.754Z,95763.09
2022-12-02T20:10:59.658Z,95748.72
2022-12-02T20:13:27.513Z,95757.22
2022-12-02T20:15:58.646Z,95737.63
2022-12-02T20:18:27.272Z,95737.78
2022-12-02T20:20:55.215Z,95715.41
2022-12-02T20:23:25.474Z,95742.84
2022-12-02T20:25:53.395Z,95737.44
2022-12-02T20:28:21.310Z,95731.75
2022-12-02T20:30:49.312Z,95699.41
2022-12-02T20:33:17.228Z,95704.00
2022-12-02T20:35:45.073Z,95688.47
2022-12-02T20:38:13.047Z,95710.50
2022-12-02T20:40:42.360Z,95690.94
2022-12-02T20:43:10.749Z,95701.38
2022-12-02T20:45:38.576Z,95690.28
2022-12-02T20:48:06.856Z,95716.56
2022-12-02T20:50:34.683Z,95685.88
2022-12-02T20:53:02.531Z,95679.19
2022-12-02T20:55:30.287Z,95681.78
2022-12-02T20:57:59.561Z,95659.06
2022-12-02T21:00:27.455Z,95661.69
2022-12-02T21:02:55.519Z,95640.31
2022-12-02T21:05:23.417Z,95652.06
2022-12-02T21:07:51.357Z,95637.69
2022-12-02T21:10:19.373Z,95635.72
2022-12-02T21:12:47.183Z,95634.09
2022-12-02T21:15:17.139Z,95655.31
2022-12-02T21:17:45.200Z,95641.94
2022-12-02T21:20:17.352Z,95623.97
2022-12-02T21:22:45.299Z,95653.69
2022-12-02T21:25:13.460Z,95631.00
2022-12-02T21:27:41.327Z,95635.06
2022-12-02T21:30:11.946Z,95655.63
2022-12-02T21:32:41.095Z,95643.56
2022-12-02T21:35:10.107Z,95650.41
2022-12-02T21:37:38.487Z,95646.19
2022-12-02T21:40:08.598Z,95650.41
2022-12-02T21:42:36.442Z,95616.47
2022-12-02T21:45:04.948Z,95614.03
2022-12-02T21:47:32.821Z,95629.19
2022-12-02T21:50:02.024Z,95646.19
2022-12-02T21:52:29.950Z,95635.06
2022-12-02T21:54:59.913Z,95631.00
2022-12-02T21:57:28.013Z,95606.34
2022-12-02T21:59:55.934Z,95568.84
2022-12-02T22:02:24.256Z,95568.19
2022-12-02T22:04:52.413Z,95535.22
2022-12-02T22:07:39.807Z,95525.09
2022-12-02T22:10:09.449Z,95566.56
2022-12-02T22:12:37.180Z,95562.31
2022-12-02T22:15:06.003Z,95546.94
2022-12-02T22:17:33.868Z,95529.19
2022-12-02T22:20:02.050Z,95537.81
2022-12-02T22:22:31.221Z,95533.59
2022-12-02T22:24:59.035Z,95524.13
2022-12-02T22:27:26.841Z,95524.13
2022-12-02T22:29:54.819Z,95509.78
2022-12-02T22:32:22.948Z,95519.88
2022-12-02T22:34:50.899Z,95507.16
2022-12-02T22:37:18.944Z,95487.75
2022-12-02T22:39:48.093Z,95488.75
2022-12-02T22:42:15.900Z,95499.66
2022-12-02T22:44:43.766Z,95488.41
2022-12-02T22:47:11.572Z,95481.06
2022-12-02T22:49:39.314Z,95481.06
2022-12-02T22:52:07.475Z,95480.09
2022-12-02T22:54:35.338Z,95482.72
2022-12-02T22:57:04.786Z,95458.91
2022-12-02T22:59:32.673Z,95462.00
2022-12-02T23:02:00.644Z,95486.28
2022-12-02T23:04:28.619Z,95455.66
2022-12-02T23:06:56.561Z,95430.19
2022-12-02T23:09:24.460Z,95410.78
2022-12-02T23:11:52.357Z,95394.81
2022-12-02T23:14:21.785Z,95390.13
2022-12-02T23:16:49.713Z,95398.72
2022-12-02T23:19:19.887Z,95409.16
2022-12-02T23:21:47.928Z,95370.88
2022-12-02T23:24:15.855Z,95368.59
2022-12-02T23:26:43.827Z,95380.16
2022-12-02T23:29:11.854Z,95381.94
2022-12-02T23:31:41.096Z,95353.91
2022-12-02T23:34:09.916Z,95333.91
2022-12-02T23:36:37.982Z,95344.81
2022-12-02T23:39:05.756Z,95319.53
2022-12-02T23:41:33.569Z,95305.03
2022-12-02T23:44:01.460Z,95298.19
2022-12-02T23:46:29.313Z,95307.47
2022-12-02T23:48:58.617Z,95296.56
2022-12-02T23:51:27.404Z,95305.03
2022-12-02T23:53:55.472Z,95338.59
2022-12-02T23:56:23.245Z,95355.88
2022-12-02T23:58:51.369Z,95356.53
